createdAt,value
2023-04-26T00:01:30.883Z,99788.23
2023-04-26T00:06:37.355Z,99797.20
2023-04-26T00:11:42.775Z,99797.56
2023-04-26T00:16:48.710Z,99802.27
2023-04-26T00:21:54.150Z,99805.84
2023-04-26T00:27:00.815Z,99812.11
2023-04-26T00:32:07.409Z,99817.80
2023-04-26T00:37:13.021Z,99838.95
2023-04-26T00:42:19.536Z,99847.15
2023-04-26T00:47:26.191Z,99854.75
2023-04-26T00:52:32.221Z,99861.21
2023-04-26T00:57:41.714Z,99865.59
2023-04-26T01:02:51.292Z,99859.34
2023-04-26T01:07:57.878Z,99854.52
2023-04-26T01:13:03.818Z,99858.92
2023-04-26T01:18:09.878Z,99857.23
2023-04-26T01:23:15.379Z,99863.42
2023-04-26T01:28:21.024Z,99866.07
2023-04-26T01:33:26.489Z,99879.98
2023-04-26T01:38:31.917Z,99892.63
2023-04-26T01:43:37.560Z,99896.11
2023-04-26T01:48:43.195Z,99896.60
2023-04-26T01:53:48.633Z,99897.44
2023-04-26T01:58:56.325Z,99900.83
2023-04-26T02:04:01.980Z,99900.79
2023-04-26T02:09:09.184Z,99899.64
2023-04-26T02:14:18.654Z,99898.18
2023-04-26T02:19:24.032Z,99897.15
2023-04-26T02:24:30.980Z,99894.63
2023-04-26T02:29:44.383Z,99899.98
2023-04-26T02:34:50.873Z,99904.51
2023-04-26T02:39:56.396Z,99897.09
2023-04-26T02:45:02.123Z,99897.77
2023-04-26T02:50:09.729Z,99901.29
2023-04-26T02:55:15.322Z,99903.44
2023-04-26T03:00:22.201Z,99902.67
2023-04-26T03:05:27.940Z,99897.08
2023-04-26T03:10:33.806Z,99899.33
2023-04-26T03:15:39.476Z,99897.63
2023-04-26T03:20:45.595Z,99903.75
2023-04-26T03:25:51.724Z,99905.55
2023-04-26T03:30:57.202Z,99904.73
2023-04-26T03:36:03.266Z,99906.75
2023-04-26T03:41:09.863Z,99908.29
2023-04-26T03:46:16.326Z,99907.98
2023-04-26T03:51:28.281Z,99909.00
2023-04-26T03:56:33.786Z,99910.90
2023-04-26T04:01:39.997Z,99917.40
2023-04-26T04:06:46.193Z,99922.61
2023-04-26T04:11:52.447Z,99925.23
2023-04-26T04:16:59.373Z,99927.62
2023-04-26T04:22:05.348Z,99931.92
2023-04-26T04:27:11.643Z,99930.45
2023-04-26T04:32:18.967Z,99928.14
2023-04-26T04:37:25.496Z,99927.32
2023-04-26T04:42:32.330Z,99921.05
2023-04-26T04:47:40.064Z,99925.24
2023-04-26T04:52:45.697Z,99933.27
2023-04-26T04:57:51.320Z,99932.70
2023-04-26T05:02:57.709Z,99939.09
2023-04-26T05:08:04.016Z,99945.49
2023-04-26T05:13:09.506Z,99949.05
2023-04-26T05:18:15.421Z,99952.53
2023-04-26T05:23:21.622Z,99952.82
2023-04-26T05:28:27.065Z,99959.64
2023-04-26T05:33:46.373Z,99959.49
2023-04-26T05:38:57.999Z,99965.60
2023-04-26T05:44:03.446Z,99975.80
2023-04-26T05:49:09.356Z,99983.87
2023-04-26T05:54:14.796Z,99992.35
2023-04-26T05:59:21.201Z,99989.90
2023-04-26T06:04:27.006Z,99995.80
2023-04-26T06:09:43.398Z,100002.10
2023-04-26T06:14:49.148Z,100002.63
2023-04-26T06:19:58.128Z,100002.80
2023-04-26T06:25:04.752Z,100001.11
2023-04-26T06:30:13.439Z,99991.55
2023-04-26T06:35:24.760Z,99985.96
2023-04-26T06:40:30.900Z,99984.92
2023-04-26T06:45:36.957Z,99984.21
2023-04-26T06:50:42.745Z,99987.31
2023-04-26T06:55:48.304Z,99991.02
2023-04-26T07:00:53.835Z,99992.25
2023-04-26T07:05:59.347Z,99993.36
2023-04-26T07:11:11.635Z,100000.51
2023-04-26T07:16:17.088Z,100007.66
2023-04-26T07:21:22.890Z,100005.80
2023-04-26T07:26:28.640Z,100012.00
2023-04-26T07:31:34.077Z,100013.79
2023-04-26T07:36:39.502Z,100012.14
2023-04-26T07:41:45.099Z,100011.39
2023-04-26T07:46:51.233Z,100014.81
2023-04-26T07:51:58.279Z,100020.16
2023-04-26T07:57:03.698Z,100022.89
2023-04-26T08:02:09.242Z,100037.57
2023-04-26T08:07:15.451Z,100043.70
2023-04-26T08:12:21.108Z,100040.77
2023-04-26T08:17:26.886Z,100041.81
2023-04-26T08:22:32.328Z,100043.41
2023-04-26T08:27:37.961Z,100033.89
2023-04-26T08:32:43.592Z,100043.09
2023-04-26T08:37:49.087Z,100054.83
2023-04-26T08:42:54.687Z,100061.28
2023-04-26T08:48:04.962Z,100065.80
2023-04-26T08:53:14.031Z,100074.02
2023-04-26T08:58:21.533Z,100068.59
2023-04-26T09:03:27.370Z,100064.98
2023-04-26T09:08:35.562Z,100064.95
2023-04-26T09:13:40.928Z,100072.64
2023-04-26T09:18:57.568Z,100082.73
2023-04-26T09:24:05.610Z,100089.54
2023-04-26T09:29:16.226Z,100099.54
2023-04-26T09:34:21.821Z,100105.55
2023-04-26T09:39:37.544Z,100104.04
2023-04-26T09:44:43.335Z,100110.73
2023-04-26T09:49:51.418Z,100109.96
2023-04-26T09:54:57.148Z,100111.50
2023-04-26T10:00:12.398Z,100104.96
2023-04-26T10:05:18.666Z,100105.64
2023-04-26T10:10:24.074Z,100106.15
2023-04-26T10:15:29.984Z,100122.91
2023-04-26T10:20:39.565Z,100123.42
2023-04-26T10:25:45.009Z,100125.86
2023-04-26T10:30:57.721Z,100122.56
2023-04-26T10:36:10.353Z,100122.80
2023-04-26T10:41:31.079Z,100119.20
2023-04-26T10:46:38.992Z,100122.30
2023-04-26T10:52:13.557Z,100130.88
2023-04-26T10:57:19.707Z,100131.98
2023-04-26T11:02:57.982Z,100135.88
2023-04-26T11:08:10.846Z,100134.86
2023-04-26T11:13:17.047Z,100142.11
2023-04-26T11:18:22.753Z,100147.81
2023-04-26T11:23:30.188Z,100146.74
2023-04-26T11:28:37.435Z,100149.05
2023-04-26T11:33:43.988Z,100148.55
2023-04-26T11:38:49.641Z,100158.58
2023-04-26T11:43:55.430Z,100160.08
2023-04-26T11:49:01.437Z,100154.27
2023-04-26T11:54:07.102Z,100155.92
2023-04-26T11:59:12.562Z,100158.52
2023-04-26T12:04:18.162Z,100172.95
2023-04-26T12:09:29.616Z,100177.48
2023-04-26T12:14:36.110Z,100178.34
2023-04-26T12:19:42.027Z,100181.97
2023-04-26T12:24:48.371Z,100185.65
2023-04-26T12:29:53.871Z,100189.89
2023-04-26T12:34:59.392Z,100189.39
2023-04-26T12:40:07.326Z,100198.91
2023-04-26T12:45:13.207Z,100205.62
2023-04-26T12:50:18.939Z,100208.88
2023-04-26T12:55:25.126Z,100208.16
2023-04-26T13:00:30.702Z,100210.48
2023-04-26T13:05:36.405Z,100219.11
2023-04-26T13:10:41.892Z,100214.65
2023-04-26T13:15:47.610Z,100217.83
2023-04-26T13:20:53.277Z,100222.76
2023-04-26T13:25:58.870Z,100226.45
2023-04-26T13:31:04.566Z,100230.44
2023-04-26T13:36:10.441Z,100226.58
2023-04-26T13:41:16.604Z,100232.62
2023-04-26T13:46:22.503Z,100242.02
2023-04-26T13:51:30.764Z,100246.21
2023-04-26T13:56:36.371Z,100248.97
2023-04-26T14:01:42.017Z,100250.88
2023-04-26T14:06:47.573Z,100257.16
2023-04-26T14:12:00.821Z,100265.89
2023-04-26T14:17:13.963Z,100276.58
2023-04-26T14:22:19.832Z,100275.48
2023-04-26T14:27:25.409Z,100283.45
2023-04-26T14:32:31.300Z,100284.34
2023-04-26T14:37:37.004Z,100291.36
2023-04-26T14:42:48.805Z,100298.63
2023-04-26T14:47:54.474Z,100300.77
2023-04-26T14:53:00.112Z,100303.30
2023-04-26T14:58:05.961Z,100306.60
2023-04-26T15:03:12.590Z,100313.41
2023-04-26T15:08:22.591Z,100317.98
2023-04-26T15:13:28.123Z,100319.54
2023-04-26T15:18:33.649Z,100318.29
2023-04-26T15:23:39.006Z,100319.95
2023-04-26T15:28:44.396Z,100322.61
2023-04-26T15:33:49.748Z,100327.88
2023-04-26T15:38:55.875Z,100322.92
2023-04-26T15:44:01.977Z,100323.75
2023-04-26T15:49:07.447Z,100320.52
2023-04-26T15:54:12.851Z,100325.65
2023-04-26T15:59:18.751Z,100330.42
2023-04-26T16:04:25.047Z,100329.86
2023-04-26T16:09:30.860Z,100335.91
2023-04-26T16:14:36.332Z,100336.05
2023-04-26T16:19:42.291Z,100337.23
2023-04-26T16:24:47.835Z,100342.59
2023-04-26T16:29:53.959Z,100346.31
2023-04-26T16:34:59.410Z,100353.66
2023-04-26T16:40:08.068Z,100357.08
2023-04-26T16:45:16.283Z,100359.27
2023-04-26T16:50:23.167Z,100362.40
2023-04-26T16:55:28.620Z,100361.27
2023-04-26T17:00:34.312Z,100365.27
2023-04-26T17:05:40.972Z,100371.04
2023-04-26T17:10:48.900Z,100372.70
2023-04-26T17:15:55.566Z,100377.29
2023-04-26T17:21:01.760Z,100376.68
2023-04-26T17:26:07.148Z,100379.17
2023-04-26T17:31:12.793Z,100382.73
2023-04-26T17:36:19.684Z,100385.98
2023-04-26T17:41:25.357Z,100390.48
2023-04-26T17:46:30.809Z,100384.79
2023-04-26T17:51:36.408Z,100395.40
2023-04-26T17:56:43.543Z,100405.78
2023-04-26T18:01:49.108Z,100411.94
2023-04-26T18:06:54.803Z,100413.38
2023-04-26T18:12:00.377Z,100418.77
2023-04-26T18:17:06.998Z,100429.67
2023-04-26T18:22:12.420Z,100428.62
2023-04-26T18:27:18.103Z,100431.91
2023-04-26T18:32:23.874Z,100434.55
2023-04-26T18:37:29.266Z,100440.61
2023-04-26T18:42:35.118Z,100442.19
2023-04-26T18:47:41.597Z,100444.48
2023-04-26T18:52:47.062Z,100451.45
2023-04-26T18:57:52.817Z,100455.14
2023-04-26T19:02:58.501Z,100461.22
2023-04-26T19:08:04.121Z,100464.41
2023-04-26T19:13:09.564Z,100465.55
2023-04-26T19:18:15.323Z,100468.75
2023-04-26T19:23:21.914Z,100471.60
2023-04-26T19:28:30.760Z,100476.72
2023-04-26T19:33:37.155Z,100475.80
2023-04-26T19:38:42.669Z,100476.48
2023-04-26T19:43:48.262Z,100477.33
2023-04-26T19:48:53.586Z,100484.52
2023-04-26T19:53:59.184Z,100491.52
2023-04-26T19:59:04.897Z,100491.64
2023-04-26T20:04:10.997Z,100493.44
2023-04-26T20:09:17.331Z,100493.48
2023-04-26T20:14:22.883Z,100498.70
2023-04-26T20:19:28.700Z,100496.51
2023-04-26T20:24:33.839Z,100498.94
2023-04-26T20:29:39.227Z,100500.33
2023-04-26T20:34:44.595Z,100498.11
2023-04-26T20:39:50.078Z,100501.21
2023-04-26T20:44:56.588Z,100503.11
2023-04-26T20:50:02.434Z,100503.31
2023-04-26T20:55:09.201Z,100505.70
2023-04-26T21:00:16.103Z,100504.85
2023-04-26T21:05:22.398Z,100507.79
2023-04-26T21:10:27.966Z,100513.27
2023-04-26T21:15:34.287Z,100517.23
2023-04-26T21:20:39.992Z,100520.16
2023-04-26T21:25:50.647Z,100526.88
2023-04-26T21:31:08.268Z,100531.84
2023-04-26T21:36:13.995Z,100538.19
2023-04-26T21:41:19.914Z,100540.09
2023-04-26T21:46:26.343Z,100547.64
2023-04-26T21:51:32.086Z,100550.73
2023-04-26T21:56:37.817Z,100559.83
2023-04-26T22:01:43.552Z,100563.60
2023-04-26T22:06:50.149Z,100568.92
2023-04-26T22:11:56.315Z,100574.42
2023-04-26T22:17:02.657Z,100579.39
2023-04-26T22:22:08.725Z,100582.27
2023-04-26T22:27:14.460Z,100587.75
2023-04-26T22:32:21.441Z,100591.82
2023-04-26T22:37:27.444Z,100593.84
2023-04-26T22:42:33.094Z,100596.17
2023-04-26T22:47:38.955Z,100605.03
2023-04-26T22:52:44.712Z,100607.86
2023-04-26T22:57:50.455Z,100611.39
2023-04-26T23:02:56.193Z,100616.83
2023-04-26T23:08:01.815Z,100622.31
2023-04-26T23:13:07.741Z,100629.04
2023-04-26T23:18:13.858Z,100635.05
2023-04-26T23:23:19.583Z,100639.98
2023-04-26T23:28:25.592Z,100642.31
2023-04-26T23:33:31.169Z,100647.32
2023-04-26T23:38:36.761Z,100652.31
2023-04-26T23:43:42.664Z,100649.73
2023-04-26T23:48:48.350Z,100649.34
2023-04-26T23:53:54.042Z,100647.95
2023-04-26T23:58:59.854Z,100648.91
